Time;durP1;ratioP1;P1;durP2;ratioP2;P2;SDS_P1;SDS_P2;PMS_P1;PMS_P2;Temp;Humidity;BMP_temperature;BMP_pressure;BME280_temperature;BME280_humidity;BME280_pressure;Samples;Min_cycle;Max_cycle;Signal;HPM_P1;HPM_P2
2021/03/15 00:00:53;;;;;;;16.13;3.50;;;;;;;3.20;100.00;100595.56;6197379;28;20046;-76
2021/03/15 00:03:54;;;;;;;22.23;2.88;;;;;;;3.11;100.00;100595.78;6205007;28;20057;-77
2021/03/15 00:06:55;;;;;;;14.07;3.30;;;;;;;3.23;100.00;100585.09;6206956;28;20149;-76
2021/03/15 00:09:56;;;;;;;17.63;3.00;;;;;;;3.23;100.00;100592.88;6208297;28;20065;-76
2021/03/15 00:12:58;;;;;;;16.63;2.83;;;;;;;3.28;100.00;100598.81;6207104;28;20100;-77
2021/03/15 00:15:59;;;;;;;17.17;2.60;;;;;;;3.27;100.00;100600.56;6206928;28;20102;-76
2021/03/15 00:19:00;;;;;;;15.63;3.10;;;;;;;3.21;100.00;100586.88;6207036;28;20049;-76
2021/03/15 00:22:01;;;;;;;18.58;3.28;;;;;;;3.16;100.00;100592.19;6206472;28;20042;-76
2021/03/15 00:25:03;;;;;;;17.00;3.33;;;;;;;3.39;100.00;100593.31;6209174;28;20498;-77
2021/03/15 00:28:05;;;;;;;11.25;3.45;;;;;;;3.43;100.00;100587.16;6207120;28;20045;-76
2021/03/15 00:31:06;;;;;;;22.67;3.33;;;;;;;3.29;100.00;100582.34;6206100;28;20422;-76
2021/03/15 00:34:07;;;;;;;14.88;3.95;;;;;;;3.24;100.00;100577.25;6209313;28;20050;-76
2021/03/15 00:37:07;;;;;;;20.65;3.40;;;;;;;3.23;100.00;100585.09;6208602;28;20046;-76
2021/03/15 00:40:12;;;;;;;17.60;3.55;;;;;;;3.42;100.00;100577.69;6211620;28;20050;-77
2021/03/15 00:43:13;;;;;;;16.40;3.72;;;;;;;3.34;100.00;100572.66;6206461;28;20054;-76
2021/03/15 00:46:14;;;;;;;19.90;3.42;;;;;;;3.34;100.00;100579.63;6211070;28;20062;-76
2021/03/15 00:49:15;;;;;;;18.92;3.45;;;;;;;3.26;100.00;100572.00;6213335;28;20100;-76
2021/03/15 00:52:16;;;;;;;18.40;4.22;;;;;;;3.17;100.00;100575.69;6210750;28;20042;-76
2021/03/15 00:55:18;;;;;;;19.95;3.97;;;;;;;3.21;100.00;100577.31;6213140;28;20057;-76
2021/03/15 00:58:19;;;;;;;14.27;3.92;;;;;;;3.41;100.00;100574.22;6210961;28;20118;-76
2021/03/15 01:01:21;;;;;;;14.20;3.53;;;;;;;3.24;100.00;100572.06;6212230;28;20045;-76
2021/03/15 01:04:22;;;;;;;22.27;5.13;;;;;;;3.47;100.00;100568.84;6211219;28;20054;-76
2021/03/15 01:07:23;;;;;;;14.55;3.60;;;;;;;3.29;100.00;100572.78;6210708;28;20674;-76
2021/03/15 01:10:27;;;;;;;19.15;4.05;;;;;;;3.26;100.00;100570.25;6211687;28;20056;-77
2021/03/15 01:13:29;;;;;;;12.70;3.83;;;;;;;3.32;100.00;100571.88;6211922;28;20046;-76
2021/03/15 01:16:30;;;;;;;16.02;4.40;;;;;;;3.29;100.00;100561.56;6203461;28;20485;-76
2021/03/15 01:19:31;;;;;;;11.57;3.97;;;;;;;3.41;100.00;100565.59;6201172;28;20054;-76
2021/03/15 01:22:32;;;;;;;15.65;3.72;;;;;;;3.38;100.00;100560.47;6200507;28;20050;-76
2021/03/15 01:25:35;;;;;;;10.27;3.50;;;;;;;3.54;100.00;100559.13;6200876;28;20050;-76
2021/03/15 01:28:37;;;;;;;13.35;3.83;;;;;;;3.50;100.00;100566.19;6200759;28;20050;-76
2021/03/15 01:31:38;;;;;;;9.05;3.63;;;;;;;3.51;100.00;100560.09;6200131;28;20050;-76
2021/03/15 01:34:38;;;;;;;18.52;3.72;;;;;;;3.39;100.00;100556.97;6200677;28;20050;-76
2021/03/15 01:37:39;;;;;;;12.70;3.80;;;;;;;3.42;100.00;100560.34;6200306;28;20046;-77
2021/03/15 01:40:42;;;;;;;12.05;3.55;;;;;;;3.45;100.00;100555.06;6200540;28;20050;-77
2021/03/15 01:43:44;;;;;;;11.27;4.40;;;;;;;3.42;100.00;100549.94;6200206;28;20046;-76
2021/03/15 01:46:45;;;;;;;13.60;3.75;;;;;;;3.49;100.00;100548.88;6200229;28;20120;-77
2021/03/15 01:49:46;;;;;;;11.63;4.60;;;;;;;3.41;100.00;100547.41;6200108;28;20058;-76
2021/03/15 01:52:48;;;;;;;13.55;4.97;;;;;;;3.38;100.00;100537.09;6199944;28;20517;-76
2021/03/15 01:55:50;;;;;;;18.70;6.70;;;;;;;3.39;100.00;100534.44;6199009;28;20050;-77
2021/03/15 01:58:52;;;;;;;14.73;5.35;;;;;;;3.44;100.00;100524.78;6200235;28;20077;-76
2021/03/15 02:01:53;;;;;;;12.25;5.05;;;;;;;3.34;100.00;100525.91;6199702;28;20100;-76
2021/03/15 02:04:54;;;;;;;13.65;5.45;;;;;;;3.49;100.00;100527.25;6199728;28;20065;-76
2021/03/15 02:07:56;;;;;;;13.82;5.93;;;;;;;3.72;100.00;100521.41;6199872;28;20077;-76
2021/03/15 02:10:57;;;;;;;9.18;4.50;;;;;;;3.49;100.00;100527.25;6199126;28;20050;-76
2021/03/15 02:14:07;;;;;;;14.02;5.65;;;;;;;3.29;100.00;100517.41;6199619;28;20078;-77
2021/03/15 02:17:15;;;;;;;14.30;5.38;;;;;;;3.28;100.00;100521.75;6199542;28;20120;-77
2021/03/15 02:20:35;;;;;;;12.20;4.88;;;;;;;3.43;100.00;100514.44;6199510;28;20530;-76
2021/03/15 02:23:46;;;;;;;16.08;6.20;;;;;;;3.27;100.00;100516.59;6199004;28;20061;-76
2021/03/15 02:27:14;;;;;;;12.75;5.93;;;;;;;3.27;100.00;100512.28;6199401;28;20046;-75
2021/03/15 02:30:37;;;;;;;10.77;5.20;;;;;;;3.17;100.00;100512.53;6199452;28;20062;-75
2021/03/15 02:34:01;;;;;;;12.63;6.00;;;;;;;3.40;100.00;100504.13;6198710;28;20073;-75
2021/03/15 02:37:05;;;;;;;12.70;5.45;;;;;;;3.16;100.00;100503.06;6199208;28;20055;-75
2021/03/15 02:40:10;;;;;;;14.55;5.43;;;;;;;3.11;100.00;100500.56;6198916;28;20074;-75
2021/03/15 02:43:15;;;;;;;12.05;5.40;;;;;;;3.25;100.00;100502.81;6198842;28;20046;-76
2021/03/15 02:46:18;;;;;;;12.43;5.00;;;;;;;3.12;100.00;100502.28;6198803;28;20051;-76
2021/03/15 02:49:22;;;;;;;9.88;4.85;;;;;;;3.08;100.00;100497.19;6198788;28;20077;-76
2021/03/15 02:52:25;;;;;;;13.43;5.05;;;;;;;3.03;100.00;100492.13;6198217;28;20447;-77
2021/03/15 02:55:28;;;;;;;5.68;4.28;;;;;;;3.07;100.00;100493.75;6198747;28;20046;-76
2021/03/15 02:58:31;;;;;;;6.70;4.03;;;;;;;3.14;100.00;100495.31;6198579;28;20133;-75
2021/03/15 03:01:34;;;;;;;6.35;3.42;;;;;;;3.28;100.00;100489.75;6198399;28;20061;-75
2021/03/15 03:04:35;;;;;;;16.13;4.07;;;;;;;3.06;100.00;100492.06;6198635;28;20062;-75
2021/03/15 03:07:40;;;;;;;9.55;4.32;;;;;;;3.01;100.00;100489.59;6198108;28;20108;-72
2021/03/15 03:10:42;;;;;;;8.75;3.83;;;;;;;3.23;100.00;100495.06;6198421;28;20046;-71
2021/03/15 03:13:45;;;;;;;8.50;3.42;;;;;;;3.13;100.00;100488.41;6197903;28;20054;-71
2021/03/15 03:16:46;;;;;;;9.25;2.88;;;;;;;3.26;100.00;100487.16;6198748;28;20108;-75
2021/03/15 03:19:49;;;;;;;8.88;3.17;;;;;;;3.02;100.00;100490.44;6198078;28;20077;-75
2021/03/15 03:22:53;;;;;;;9.70;3.80;;;;;;;2.95;100.00;100487.16;6197763;28;20478;-76
2021/03/15 03:25:55;;;;;;;9.25;4.05;;;;;;;2.90;100.00;100494.19;6197638;28;20054;-75
2021/03/15 03:28:57;;;;;;;9.10;3.00;;;;;;;2.88;100.00;100485.59;6197889;28;20077;-74
2021/03/15 03:31:59;;;;;;;4.72;3.20;;;;;;;2.92;100.00;100494.19;6197620;28;20042;-75
2021/03/15 03:35:00;;;;;;;5.35;2.78;;;;;;;3.13;100.00;100484.94;6197822;28;20503;-75
2021/03/15 03:38:02;;;;;;;4.13;2.58;;;;;;;2.98;100.00;100484.47;6197851;28;20073;-75
2021/03/15 03:41:03;;;;;;;4.40;2.40;;;;;;;2.89;100.00;100491.66;6197884;28;20050;-75
2021/03/15 03:44:05;;;;;;;6.53;3.08;;;;;;;2.88;100.00;100487.34;6197874;28;20125;-74
2021/03/15 03:47:06;;;;;;;5.47;2.80;;;;;;;2.87;100.00;100483.91;6197554;28;20514;-75
2021/03/15 03:50:11;;;;;;;8.55;3.40;;;;;;;2.89;100.00;100482.13;6197766;28;20050;-75
2021/03/15 03:53:16;;;;;;;6.07;3.30;;;;;;;2.90;100.00;100483.81;6197187;28;20042;-76
2021/03/15 03:56:24;;;;;;;6.80;3.45;;;;;;;2.86;100.00;100479.63;6203883;28;20050;-76
2021/03/15 03:59:28;;;;;;;7.20;3.15;;;;;;;2.90;100.00;100476.03;6197636;28;20100;-75
2021/03/15 04:02:29;;;;;;;5.65;3.25;;;;;;;2.91;100.00;100479.50;6197181;28;20053;-76
2021/03/15 04:05:32;;;;;;;9.20;3.30;;;;;;;3.18;100.00;100476.16;6197570;28;20051;-76
2021/03/15 04:08:46;;;;;;;4.75;2.42;;;;;;;2.96;100.00;100480.22;6197402;28;20112;-76
2021/03/15 04:11:49;;;;;;;5.47;3.03;;;;;;;2.91;100.00;100489.88;6197028;28;20519;-75
2021/03/15 04:14:52;;;;;;;8.68;4.00;;;;;;;2.87;100.00;100491.69;6197659;28;20503;-76
2021/03/15 04:17:55;;;;;;;7.78;3.70;;;;;;;3.07;100.00;100493.75;6198071;28;20101;-78
2021/03/15 04:20:59;;;;;;;4.72;3.42;;;;;;;3.23;100.00;100491.63;6201951;28;20057;-76
2021/03/15 04:24:03;;;;;;;8.25;3.15;;;;;;;3.22;100.00;100492.50;6202026;28;20426;-78
2021/03/15 04:27:05;;;;;;;5.68;3.70;;;;;;;3.05;100.00;100501.59;6202130;28;20423;-76
2021/03/15 04:30:08;;;;;;;5.18;3.13;;;;;;;3.12;100.00;100504.03;6201865;28;20408;-76
2021/03/15 04:33:11;;;;;;;6.85;3.55;;;;;;;3.08;100.00;100497.19;6201830;28;20046;-76
2021/03/15 04:36:15;;;;;;;4.55;3.25;;;;;;;3.18;100.00;100503.84;6201937;28;20188;-76
2021/03/15 04:39:17;;;;;;;5.55;3.05;;;;;;;3.13;100.00;100493.59;6201805;28;20054;-76
2021/03/15 04:42:18;;;;;;;4.15;2.55;;;;;;;3.04;100.00;100499.91;6201540;28;20050;-78
2021/03/15 04:45:20;;;;;;;5.13;2.42;;;;;;;2.95;100.00;100497.53;6201532;28;20046;-76
2021/03/15 04:48:24;;;;;;;2.65;2.15;;;;;;;2.98;100.00;100497.44;6201566;28;20462;-77
2021/03/15 04:51:26;;;;;;;3.15;2.10;;;;;;;3.12;100.00;100493.63;6201113;28;20054;-77
2021/03/15 04:54:28;;;;;;;3.83;2.40;;;;;;;3.04;100.00;100496.44;6201587;28;20053;-78
2021/03/15 04:57:32;;;;;;;3.00;2.47;;;;;;;3.08;100.00;100505.00;6201329;28;20050;-71
2021/03/15 05:00:34;;;;;;;2.63;2.10;;;;;;;3.10;100.00;100498.88;6201446;28;20112;-71
2021/03/15 05:03:37;;;;;;;5.18;2.50;;;;;;;2.91;100.00;100493.31;6200790;28;20069;-72
2021/03/15 05:06:41;;;;;;;4.10;3.00;;;;;;;3.07;100.00;100492.91;6201220;28;20046;-71
2021/03/15 05:09:43;;;;;;;4.18;2.63;;;;;;;2.90;100.00;100493.34;6200956;28;20495;-71
2021/03/15 05:12:45;;;;;;;4.15;3.15;;;;;;;2.97;100.00;100493.16;6200583;28;20046;-71
2021/03/15 05:15:47;;;;;;;5.78;3.45;;;;;;;2.92;100.00;100491.56;6201030;28;20050;-71
2021/03/15 05:18:51;;;;;;;4.60;3.67;;;;;;;2.87;100.00;100501.22;6200705;28;20050;-71
2021/03/15 05:21:52;;;;;;;5.35;4.05;;;;;;;2.94;100.00;100495.81;6200620;28;20135;-72
2021/03/15 05:24:54;;;;;;;6.03;4.15;;;;;;;2.92;100.00;100496.78;6200666;28;20046;-71
2021/03/15 05:27:55;;;;;;;6.78;4.05;;;;;;;3.02;100.00;100495.63;6200586;28;20408;-71
2021/03/15 05:30:59;;;;;;;5.82;4.10;;;;;;;2.90;100.00;100503.72;6200121;28;20046;-71
2021/03/15 05:34:01;;;;;;;7.05;4.60;;;;;;;2.84;100.00;100498.69;6200458;28;20047;-71
2021/03/15 05:37:03;;;;;;;7.47;4.35;;;;;;;2.93;100.00;100491.53;6200427;28;20054;-71
2021/03/15 05:40:10;;;;;;;10.27;5.10;;;;;;;2.80;100.00;100498.78;6200525;28;20054;-71
2021/03/15 05:43:33;;;;;;;11.23;5.28;;;;;;;2.76;100.00;100504.06;6200015;28;20430;-71
2021/03/15 05:47:04;;;;;;;9.57;5.13;;;;;;;2.77;100.00;100498.88;6200153;28;20419;-71
2021/03/15 05:50:42;;;;;;;9.75;6.00;;;;;;;2.73;100.00;100501.59;6199888;28;20141;-71
2021/03/15 05:54:12;;;;;;;13.07;6.93;;;;;;;2.85;100.00;100508.19;6199711;28;20053;-71
2021/03/15 05:57:34;;;;;;;10.32;6.80;;;;;;;2.95;100.00;100514.84;6199960;28;20054;-71
2021/03/15 06:01:03;;;;;;;11.10;7.07;;;;;;;2.93;100.00;100517.47;6200129;28;20078;-71
2021/03/15 06:04:32;;;;;;;17.00;9.93;;;;;;;2.77;100.00;100513.56;6165182;28;20420;-71
2021/03/15 06:07:34;;;;;;;15.90;9.25;;;;;;;2.84;100.00;100529.84;6192784;28;20554;-71
2021/03/15 06:10:51;;;;;;;15.40;10.18;;;;;;;3.02;100.00;100516.41;6199655;28;20062;-71
2021/03/15 06:13:55;;;;;;;17.50;10.90;;;;;;;2.89;100.00;100515.84;6199572;28;20056;-71
2021/03/15 06:16:57;;;;;;;20.58;10.60;;;;;;;2.89;100.00;100518.44;6199382;28;20412;-72
2021/03/15 06:19:59;;;;;;;17.35;9.75;;;;;;;2.96;100.00;100514.81;6199744;28;20057;-72
2021/03/15 06:23:00;;;;;;;15.57;9.35;;;;;;;2.86;100.00;100502.09;6198998;28;20050;-71
2021/03/15 06:26:02;;;;;;;12.98;8.95;;;;;;;3.00;100.00;100508.66;6199469;28;20054;-72
2021/03/15 06:29:04;;;;;;;12.68;8.45;;;;;;;3.09;100.00;100517.94;6199238;28;20082;-71
2021/03/15 06:32:08;;;;;;;15.68;8.38;;;;;;;3.18;100.00;100507.31;6198863;28;20133;-71
2021/03/15 06:35:12;;;;;;;19.50;9.70;;;;;;;3.07;100.00;100514.53;6198871;28;20515;-71
2021/03/15 06:38:15;;;;;;;14.85;9.00;;;;;;;3.00;100.00;100518.19;6207773;28;20046;-70
2021/03/15 06:41:17;;;;;;;15.65;8.70;;;;;;;3.20;100.00;100521.09;6222121;28;20427;-71
2021/03/15 06:44:19;;;;;;;15.85;8.88;;;;;;;3.05;100.00;100522.38;6223061;28;20413;-71
2021/03/15 06:47:20;;;;;;;16.73;9.32;;;;;;;3.02;100.00;100519.84;6223127;28;20449;-71
2021/03/15 06:50:21;;;;;;;15.55;8.98;;;;;;;3.05;100.00;100522.38;6222948;28;20060;-70
2021/03/15 06:53:22;;;;;;;15.13;8.57;;;;;;;3.01;100.00;100517.28;6222688;28;20046;-71
2021/03/15 06:56:24;;;;;;;16.83;8.27;;;;;;;3.10;100.00;100522.25;6222874;28;20100;-70
2021/03/15 06:59:44;;;;;;;18.00;9.95;;;;;;;3.34;100.00;100518.13;6221739;28;20053;-71
2021/03/15 07:02:56;;;;;;;13.18;6.32;;;;;;;3.26;100.00;100514.88;6222278;28;20052;-71
2021/03/15 07:05:58;;;;;;;13.35;6.40;;;;;;;3.31;100.00;100513.00;6220749;28;20053;-71
2021/03/15 07:09:08;;;;;;;10.75;5.70;;;;;;;3.38;100.00;100511.13;6220544;28;20088;-72
2021/03/15 07:12:17;;;;;;;11.00;5.45;;;;;;;3.33;100.00;100508.66;6221013;28;20053;-71
2021/03/15 07:15:19;;;;;;;;;;;;;;;3.39;100.00;100505.03;6222711;28;20130;-73
2021/03/15 07:18:22;;;;;;;11.15;5.45;;;;;;;3.61;100.00;100515.66;6222509;28;19928;-72
2021/03/15 07:21:31;;;;;;;9.70;5.10;;;;;;;3.85;100.00;100503.69;6222030;28;20050;-71
2021/03/15 07:24:32;;;;;;;;;;;;;;;3.74;100.00;100499.69;6223017;28;20042;-73
2021/03/15 07:27:34;;;;;;;9.85;5.05;;;;;;;3.74;100.00;100504.88;6222093;28;20389;-75
2021/03/15 07:30:40;;;;;;;7.70;4.55;;;;;;;3.90;100.00;100494.88;6222413;28;20058;-74
2021/03/15 07:33:41;;;;;;;13.07;5.63;;;;;;;3.83;100.00;100508.09;6221940;28;20160;-74
2021/03/15 07:37:02;;;;;;;18.58;6.60;;;;;;;4.03;100.00;100514.41;6222435;28;20049;-75
2021/03/15 07:40:03;;;;;;;18.83;4.90;;;;;;;4.11;100.00;100536.72;6222282;28;20061;-74
2021/03/15 07:43:06;;;;;;;15.18;5.30;;;;;;;4.22;100.00;100522.47;6221116;28;20053;-73
2021/03/15 07:46:18;;;;;;;15.43;5.28;;;;;;;4.20;100.00;100528.66;6221692;28;20400;-74
2021/03/15 07:49:27;;;;;;;12.82;5.28;;;;;;;4.33;100.00;100530.81;6219451;28;20522;-76
2021/03/15 07:52:40;;;;;;;13.18;4.90;;;;;;;4.52;100.00;100528.50;6213422;28;20042;-73
2021/03/15 07:55:41;;;;;;;12.07;5.18;;;;;;;4.56;99.42;100535.31;6220867;28;20050;-73
2021/03/15 07:58:43;;;;;;;10.05;5.20;;;;;;;4.40;100.00;100535.81;6226531;28;20050;-74
2021/03/15 08:01:45;;;;;;;21.38;7.28;;;;;;;4.42;99.55;100534.88;6226400;28;20077;-73
2021/03/15 08:04:46;;;;;;;21.80;6.75;;;;;;;4.37;99.80;100544.59;6225105;28;20054;-73
2021/03/15 08:07:47;;;;;;;19.15;7.80;;;;;;;4.25;100.00;100555.38;6226843;28;20467;-78
2021/03/15 08:10:49;;;;;;;15.15;5.65;;;;;;;4.40;100.00;100541.03;6226372;28;20057;-76
2021/03/15 08:13:54;;;;;;;25.45;6.57;;;;;;;4.29;99.96;100543.97;6226454;28;20050;-76
2021/03/15 08:16:59;;;;;;;11.82;5.60;;;;;;;4.27;100.00;100532.75;6226501;28;20053;-74
2021/03/15 08:20:04;;;;;;;16.35;6.45;;;;;;;4.43;99.99;100544.38;6226520;28;20053;-75
2021/03/15 08:23:05;;;;;;;12.57;4.93;;;;;;;4.53;99.74;100534.53;6226291;28;20053;-73
2021/03/15 08:26:08;;;;;;;16.65;5.13;;;;;;;4.42;98.92;100532.28;6226554;28;20054;-74
2021/03/15 08:29:12;;;;;;;13.85;4.90;;;;;;;4.56;98.73;100534.44;6226458;28;20507;-74
2021/03/15 08:32:15;;;;;;;20.92;4.68;;;;;;;4.68;99.47;100541.88;6225756;28;20112;-73
2021/03/15 08:35:17;;;;;;;16.13;5.75;;;;;;;4.74;98.07;100533.00;6225125;28;20046;-74
2021/03/15 08:38:18;;;;;;;21.92;5.57;;;;;;;4.56;99.19;100527.50;6225582;28;20391;-73
2021/03/15 08:41:23;;;;;;;14.88;5.15;;;;;;;4.56;100.00;100534.44;6225146;28;20062;-74
2021/03/15 08:44:37;;;;;;;21.30;6.60;;;;;;;4.55;100.00;100528.41;6225606;28;20089;-71
2021/03/15 08:47:52;;;;;;;22.35;5.78;;;;;;;4.83;100.00;100535.31;6225736;28;20050;-74
2021/03/15 08:50:59;;;;;;;22.15;5.40;;;;;;;4.66;100.00;100540.22;6224707;28;20049;-74
2021/03/15 08:54:00;;;;;;;22.42;6.05;;;;;;;4.40;100.00;100535.81;6224419;28;20521;-74
2021/03/15 08:57:01;;;;;;;24.75;5.78;;;;;;;4.42;100.00;100540.09;6223973;28;20049;-74
2021/03/15 09:00:32;;;;;;;16.92;5.10;;;;;;;4.54;100.00;100531.03;6225669;28;20479;-74
2021/03/15 09:03:50;;;;;;;19.02;4.75;;;;;;;4.45;100.00;100540.00;6224217;28;20042;-74
2021/03/15 09:06:51;;;;;;;22.27;5.95;;;;;;;4.49;100.00;100538.13;6225539;28;20057;-74
2021/03/15 09:09:52;;;;;;;27.67;5.93;;;;;;;4.46;100.00;100541.69;6225529;28;20053;-74
2021/03/15 09:13:30;;;;;;;19.05;5.65;;;;;;;4.70;100.00;100529.66;6224713;28;20510;-74
2021/03/15 09:16:31;;;;;;;22.60;4.75;;;;;;;4.71;100.00;100528.75;6229942;23;20052;-75
2021/03/15 09:19:34;;;;;;;30.73;7.65;;;;;;;4.66;100.00;100537.59;6196453;28;20554;-76
2021/03/15 09:22:38;;;;;;;23.38;5.75;;;;;;;4.65;100.00;100530.72;6200497;28;20047;-76
2021/03/15 09:25:39;;;;;;;15.75;4.53;;;;;;;4.80;100.00;100528.44;6200370;28;20051;-77
2021/03/15 09:28:40;;;;;;;24.52;4.65;;;;;;;4.77;100.00;100535.53;6200593;28;20069;-76
2021/03/15 09:31:58;;;;;;;15.25;4.35;;;;;;;4.69;100.00;100530.56;6198340;28;20073;-77
2021/03/15 09:35:02;;;;;;;17.77;4.38;;;;;;;4.82;100.00;100539.66;6193772;28;20518;-77
2021/03/15 09:38:04;;;;;;;12.93;3.53;;;;;;;5.07;100.00;100537.06;6194921;28;20061;-75
2021/03/15 09:41:06;;;;;;;25.40;4.07;;;;;;;4.99;100.00;100548.66;6197754;28;20050;-77
2021/03/15 09:44:10;;;;;;;19.90;3.75;;;;;;;5.03;100.00;100545.91;6200130;28;20054;-78
2021/03/15 09:47:13;;;;;;;17.65;3.55;;;;;;;5.04;100.00;100534.59;6199960;28;20046;-77
2021/03/15 09:50:18;;;;;;;14.38;3.03;;;;;;;5.29;100.00;100545.00;6199890;28;20057;-75
2021/03/15 09:53:19;;;;;;;11.50;3.20;;;;;;;5.20;100.00;100541.88;6198852;28;20057;-77
2021/03/15 09:56:23;;;;;;;15.90;2.72;;;;;;;5.39;99.83;100536.88;6199874;28;20129;-77
2021/03/15 09:59:24;;;;;;;16.63;3.55;;;;;;;5.32;99.29;100544.91;6199863;28;20054;-76
2021/03/15 10:02:28;;;;;;;11.75;2.72;;;;;;;5.37;99.02;100546.50;6199576;28;20112;-77
2021/03/15 10:05:31;;;;;;;14.23;2.78;;;;;;;5.55;97.44;100544.09;6198455;28;20065;-77
2021/03/15 10:08:32;;;;;;;17.05;3.40;;;;;;;5.48;97.56;100542.59;6199546;28;20051;-77
2021/03/15 10:11:41;;;;;;;15.30;2.78;;;;;;;5.36;99.02;100553.47;6199400;28;20050;-78
2021/03/15 10:14:42;;;;;;;19.13;2.45;;;;;;;5.22;99.81;100543.53;6199132;28;20419;-80
2021/03/15 10:17:44;;;;;;;16.77;2.65;;;;;;;5.14;100.00;100553.38;6198685;28;20057;-79
2021/03/15 10:20:47;;;;;;;13.50;2.78;;;;;;;5.18;100.00;100546.28;6199185;28;20050;-79
2021/03/15 10:23:48;;;;;;;9.52;2.38;;;;;;;5.18;100.00;100548.88;6199354;28;20049;-78
2021/03/15 10:26:49;;;;;;;12.60;3.47;;;;;;;5.14;100.00;100537.75;6199171;28;20054;-79
2021/03/15 10:29:52;;;;;;;13.68;2.72;;;;;;;5.42;100.00;100547.19;6199292;28;20058;-76
2021/03/15 10:32:53;;;;;;;11.98;3.10;;;;;;;5.35;98.44;100552.59;6198561;28;20423;-81
2021/03/15 10:35:56;;;;;;;18.50;3.05;;;;;;;5.51;100.00;100541.66;6196408;28;20133;-81
2021/03/15 10:38:57;;;;;;;17.55;2.15;;;;;;;5.77;95.87;100538.97;6198749;28;20104;-77
2021/03/15 10:41:59;;;;;;;14.73;3.17;;;;;;;5.77;95.79;100546.78;6198898;28;20057;-79
2021/03/15 10:45:00;;;;;;;12.63;2.25;;;;;;;5.84;94.28;100531.75;6198900;28;20054;-78
2021/03/15 10:48:03;;;;;;;18.15;2.28;;;;;;;6.03;93.66;100547.59;6199077;28;20053;-79
2021/03/15 10:51:05;;;;;;;18.67;2.55;;;;;;;5.96;92.61;100548.75;6198536;28;20054;-80
2021/03/15 10:54:07;;;;;;;17.20;2.53;;;;;;;6.02;89.92;100532.84;6198826;28;20093;-80
2021/03/15 10:57:09;;;;;;;10.60;2.33;;;;;;;5.89;92.24;100532.41;6198629;28;20050;-80
2021/03/15 11:00:29;;;;;;;10.90;2.33;;;;;;;6.30;88.54;100528.25;6198508;28;20542;-79
2021/03/15 11:03:31;;;;;;;14.95;2.00;;;;;;;6.32;88.76;100530.81;6198436;28;20133;-80
2021/03/15 11:06:33;;;;;;;21.75;4.07;;;;;;;6.64;87.94;100529.53;6198304;28;20058;-80
2021/03/15 11:09:34;;;;;;;9.65;2.67;;;;;;;6.85;86.22;100535.63;6198502;28;20058;-80
2021/03/15 11:12:38;;;;;;;9.80;2.03;;;;;;;6.92;85.22;100536.25;6197829;28;20467;-80
2021/03/15 11:15:39;;;;;;;16.30;1.92;;;;;;;6.92;83.09;100525.78;6198095;28;20050;-82
2021/03/15 11:18:41;;;;;;;19.42;2.40;;;;;;;6.92;85.13;100529.25;6198060;28;20061;-81
2021/03/15 11:21:44;;;;;;;12.18;1.77;;;;;;;6.94;84.25;100532.63;6197860;28;20411;-81
2021/03/15 11:24:45;;;;;;;11.55;1.90;;;;;;;7.02;80.17;100534.94;6198034;28;20054;-81
2021/03/15 11:27:48;;;;;;;11.20;2.13;;;;;;;7.16;80.53;100537.81;6198043;28;20573;-80
2021/03/15 11:30:49;;;;;;;17.08;2.20;;;;;;;7.11;79.80;100539.78;6197802;28;20054;-79
2021/03/15 11:33:51;;;;;;;15.93;2.42;;;;;;;7.31;80.91;100537.19;6198075;28;20054;-78
2021/03/15 11:36:53;;;;;;;9.27;1.58;;;;;;;7.19;80.45;100542.91;6197587;28;20077;-78
2021/03/15 11:39:54;;;;;;;16.95;1.92;;;;;;;7.32;79.39;100540.63;6197047;28;20455;-78
2021/03/15 11:42:55;;;;;;;12.73;1.92;;;;;;;7.44;79.04;100547.06;6191560;28;20118;-77
2021/03/15 11:45:56;;;;;;;15.80;2.00;;;;;;;7.21;81.15;100546.31;6192825;28;20050;-78
2021/03/15 11:48:57;;;;;;;14.82;2.28;;;;;;;6.92;83.89;100551.91;6197624;28;20133;-79
2021/03/15 11:51:59;;;;;;;12.60;2.03;;;;;;;6.60;86.00;100548.84;6194845;28;20057;-77
2021/03/15 11:55:00;;;;;;;23.50;3.28;;;;;;;6.39;86.66;100550.53;6197523;28;20049;-78
2021/03/15 11:58:01;;;;;;;16.10;1.60;;;;;;;6.58;87.59;100554.09;6193795;28;20504;-78
2021/03/15 12:01:02;;;;;;;23.45;2.80;;;;;;;6.47;89.07;100547.63;6173142;28;20129;-79
2021/03/15 12:04:03;;;;;;;15.98;2.08;;;;;;;6.40;87.44;100544.41;6193496;28;20058;-78
2021/03/15 12:07:05;;;;;;;14.00;2.38;;;;;;;6.22;87.36;100547.72;6197475;28;20046;-78
2021/03/15 12:10:09;;;;;;;13.48;1.58;;;;;;;6.48;87.55;100538.88;6197505;28;20085;-79
2021/03/15 12:13:10;;;;;;;16.02;1.95;;;;;;;6.94;83.42;100537.84;6197552;28;20050;-76
2021/03/15 12:16:11;;;;;;;14.75;2.17;;;;;;;7.25;80.08;100540.03;6196983;28;20081;-81
2021/03/15 12:19:13;;;;;;;13.00;1.60;;;;;;;7.40;80.27;100541.13;6197380;28;20054;-80
2021/03/15 12:22:15;;;;;;;7.07;1.50;;;;;;;7.54;79.54;100544.00;6197169;28;20053;-78
2021/03/15 12:25:17;;;;;;;11.55;2.58;;;;;;;7.10;79.93;100561.59;6196723;28;20042;-79
2021/03/15 12:28:17;;;;;;;15.57;2.15;;;;;;;6.66;83.84;100566.88;6197295;28;20105;-76
2021/03/15 12:31:18;;;;;;;17.25;2.38;;;;;;;6.27;89.03;100564.09;6196838;28;20483;-78
2021/03/15 12:34:19;;;;;;;18.08;1.88;;;;;;;6.38;88.78;100551.44;6197199;28;20491;-77
2021/03/15 12:37:21;;;;;;;16.60;2.42;;;;;;;6.26;89.35;100558.00;6196596;28;20069;-77
2021/03/15 12:40:23;;;;;;;18.27;2.67;;;;;;;6.65;87.96;100557.34;6199850;28;20050;-78
2021/03/15 12:43:24;;;;;;;16.70;2.13;;;;;;;7.02;85.23;100567.13;6201140;28;20534;-77
2021/03/15 12:46:26;;;;;;;15.30;2.00;;;;;;;6.92;83.65;100570.19;6201440;28;20403;-80
2021/03/15 12:49:26;;;;;;;17.42;2.53;;;;;;;6.80;84.95;100571.53;6201301;28;20455;-82
2021/03/15 12:52:29;;;;;;;18.20;2.40;;;;;;;6.76;87.02;100602.16;6201297;28;20054;-77
2021/03/15 12:55:30;;;;;;;16.40;2.53;;;;;;;6.13;86.65;100601.09;6201232;28;20557;-79
2021/03/15 12:58:31;;;;;;;6.43;1.65;;;;;;;5.54;91.05;100588.44;6201315;28;20061;-78
2021/03/15 13:01:32;;;;;;;8.38;1.98;;;;;;;5.16;92.17;100587.16;6201087;28;20061;-76
2021/03/15 13:04:33;;;;;;;11.15;1.80;;;;;;;5.12;91.79;100588.16;6201471;28;20053;-81
2021/03/15 13:07:34;;;;;;;12.68;2.08;;;;;;;5.37;91.04;100585.59;6200331;28;20050;-77
2021/03/15 13:10:35;;;;;;;24.48;2.70;;;;;;;5.47;90.98;100589.59;6200523;28;20051;-81
2021/03/15 13:13:37;;;;;;;15.77;2.60;;;;;;;5.83;91.39;100574.38;6200908;28;20057;-80
2021/03/15 13:16:38;;;;;;;20.67;2.65;;;;;;;6.34;89.19;100575.97;6200736;28;20042;-81
2021/03/15 13:19:39;;;;;;;15.02;2.28;;;;;;;6.74;81.95;100583.09;6201122;28;20511;-79
2021/03/15 13:22:41;;;;;;;25.80;3.40;;;;;;;7.11;81.96;100594.66;6200603;28;20050;-80
2021/03/15 13:25:42;;;;;;;17.92;2.35;;;;;;;7.09;78.59;100583.44;6200797;28;20129;-79
2021/03/15 13:28:43;;;;;;;25.42;3.63;;;;;;;7.55;77.29;100578.84;6200742;28;20086;-80
2021/03/15 13:31:44;;;;;;;20.58;2.28;;;;;;;7.93;76.30;100592.84;6200463;28;20061;-79
2021/03/15 13:34:45;;;;;;;18.67;2.30;;;;;;;7.73;72.35;100590.28;6200084;28;20462;-78
2021/03/15 13:37:46;;;;;;;23.85;2.55;;;;;;;7.39;73.87;100589.09;6200454;28;20062;-74
2021/03/15 13:40:48;;;;;;;36.88;3.15;;;;;;;7.52;75.11;100587.66;6200220;28;20057;-78
2021/03/15 13:43:48;;;;;;;16.63;3.25;;;;;;;7.79;71.67;100593.44;6200515;28;20042;-80
2021/03/15 13:46:49;;;;;;;22.35;2.60;;;;;;;7.62;74.23;100588.09;6200208;28;20534;-80
2021/03/15 13:49:50;;;;;;;15.23;2.90;;;;;;;7.38;74.25;100601.31;6200009;28;20129;-79
2021/03/15 13:52:52;;;;;;;22.88;2.80;;;;;;;7.59;73.37;100598.72;6200026;28;20056;-80
2021/03/15 13:55:53;;;;;;;15.65;2.60;;;;;;;7.85;73.82;100593.16;6199961;28;20046;-79
2021/03/15 13:58:54;;;;;;;17.05;2.50;;;;;;;7.75;72.58;100609.34;6200057;28;20435;-80
2021/03/15 14:01:55;;;;;;;26.90;2.80;;;;;;;7.45;75.52;100616.75;6199647;28;20050;-81
2021/03/15 14:04:56;;;;;;;18.95;3.05;;;;;;;7.05;81.78;100631.50;6199886;28;20046;-82
2021/03/15 14:07:57;;;;;;;32.28;3.17;;;;;;;6.54;89.34;100630.88;6199498;28;20439;-81
2021/03/15 14:10:58;;;;;;;16.85;3.22;;;;;;;6.42;88.17;100639.16;6199793;28;20055;-80